createdAt,value
2017-06-27T00:00:03.233Z,14.4
2017-06-27T00:01:02.324Z,14.4
2017-06-27T00:02:01.401Z,14.4
2017-06-27T00:03:00.545Z,14.4
2017-06-27T00:03:59.749Z,14.4
2017-06-27T00:04:58.954Z,14.4
2017-06-27T00:05:58.549Z,14.4
2017-06-27T00:06:57.753Z,14.4
2017-06-27T00:07:56.949Z,14.4
2017-06-27T00:08:56.038Z,14.4
2017-06-27T00:09:55.624Z,14.3
2017-06-27T00:10:54.705Z,14.3
2017-06-27T00:11:54.170Z,14.3
2017-06-27T00:12:53.366Z,14.3
2017-06-27T00:13:52.576Z,14.3
2017-06-27T00:14:51.536Z,14.2
2017-06-27T00:15:50.745Z,14.2
2017-06-27T00:16:50.360Z,14.2
2017-06-27T00:17:49.690Z,14.2
2017-06-27T00:18:48.898Z,14.2
2017-06-27T00:19:47.925Z,14.2
2017-06-27T00:20:47.136Z,14.2
2017-06-27T00:21:46.721Z,14.2
2017-06-27T00:22:45.927Z,14.2
2017-06-27T00:23:45.370Z,14.2
2017-06-27T00:24:44.065Z,14.2
2017-06-27T00:25:43.760Z,14.1
2017-06-27T00:26:42.844Z,14.1
2017-06-27T00:27:42.050Z,14.1
2017-06-27T00:28:41.252Z,14.1
2017-06-27T00:29:40.687Z,14.1
2017-06-27T00:30:39.653Z,14.1
2017-06-27T00:31:39.250Z,14
2017-06-27T00:32:38.459Z,14
2017-06-27T00:33:37.548Z,14
2017-06-27T00:34:36.734Z,14
2017-06-27T00:35:36.572Z,14
2017-06-27T00:36:35.262Z,14
2017-06-27T00:37:34.452Z,14
2017-06-27T00:38:34.211Z,14
2017-06-27T00:39:32.915Z,14
2017-06-27T00:40:32.120Z,14
2017-06-27T00:41:32.080Z,14
2017-06-27T00:42:30.673Z,14
2017-06-27T00:43:29.758Z,14
2017-06-27T00:44:29.460Z,13.9
2017-06-27T00:45:28.686Z,13.9
2017-06-27T00:46:27.890Z,13.9
2017-06-27T00:47:27.347Z,13.9
2017-06-27T00:48:26.298Z,13.9
2017-06-27T00:49:25.764Z,13.9
2017-06-27T00:50:25.103Z,13.9
2017-06-27T00:52:23.566Z,13.9
2017-06-27T00:53:23.024Z,13.9
2017-06-27T00:54:21.723Z,13.9
2017-06-27T00:55:20.915Z,13.9
2017-06-27T00:56:20.495Z,13.9
2017-06-27T00:57:19.622Z,13.9
2017-06-27T00:58:19.282Z,13.8
2017-06-27T00:59:18.221Z,13.9
2017-06-27T01:00:17.420Z,13.9
2017-06-27T01:01:16.621Z,13.9
2017-06-27T01:02:15.589Z,13.9
2017-06-27T01:04:14.183Z,13.9
2017-06-27T01:05:13.643Z,13.8
2017-06-27T01:06:12.755Z,13.9
2017-06-27T01:07:11.952Z,13.9
2017-06-27T01:08:11.027Z,13.8
2017-06-27T01:09:10.607Z,13.8
2017-06-27T01:10:09.812Z,13.8
2017-06-27T01:11:09.272Z,13.8
2017-06-27T01:12:09.104Z,13.8
2017-06-27T01:13:07.807Z,13.8
2017-06-27T01:14:07.009Z,13.8
2017-06-27T01:15:06.200Z,13.7
2017-06-27T01:16:05.401Z,13.8
2017-06-27T01:16:36.042Z,13.8
2017-06-27T01:17:06.053Z,13.8
2017-06-27T01:17:36.556Z,13.8
2017-06-27T01:18:06.996Z,13.7
2017-06-27T01:18:37.507Z,13.7
2017-06-27T01:20:02.252Z,13.8
2017-06-27T01:21:01.831Z,13.7
2017-06-27T01:22:01.046Z,13.7
2017-06-27T01:23:00.133Z,13.7
2017-06-27T01:23:59.334Z,13.7
2017-06-27T01:24:58.542Z,13.7
2017-06-27T01:25:57.796Z,13.7
2017-06-27T01:26:56.998Z,13.7
2017-06-27T01:27:56.217Z,13.7
2017-06-27T01:28:55.296Z,13.7
2017-06-27T01:29:54.890Z,13.7
2017-06-27T01:31:53.474Z,13.7
2017-06-27T01:32:52.684Z,13.7
2017-06-27T01:33:52.133Z,13.6
2017-06-27T01:35:50.219Z,13.6
2017-06-27T01:36:49.427Z,13.6
2017-06-27T01:37:48.641Z,13.6
2017-06-27T01:38:47.849Z,13.6
2017-06-27T01:39:47.288Z,13.5
2017-06-27T01:40:46.495Z,13.5
2017-06-27T01:41:45.702Z,13.5
2017-06-27T01:42:44.796Z,13.5
2017-06-27T01:43:43.881Z,13.5
2017-06-27T01:44:43.589Z,13.5
2017-06-27T01:45:42.928Z,13.5
2017-06-27T01:46:42.129Z,13.5
2017-06-27T01:47:12.636Z,13.5
2017-06-27T01:48:40.296Z,13.5
2017-06-27T01:49:39.365Z,13.4
2017-06-27T01:50:39.068Z,13.4
2017-06-27T01:51:38.515Z,13.4
2017-06-27T01:52:37.472Z,13.4
2017-06-27T01:54:35.938Z,13.4
2017-06-27T01:55:35.140Z,13.4
2017-06-27T01:56:34.346Z,13.3
2017-06-27T01:57:33.858Z,13.3
2017-06-27T01:58:33.057Z,13.3
2017-06-27T01:59:32.143Z,13.3
2017-06-27T02:00:31.923Z,13.3
2017-06-27T02:01:30.625Z,13.3
2017-06-27T02:02:29.766Z,13.3
2017-06-27T02:03:29.168Z,13.3
2017-06-27T02:04:28.357Z,13.2
2017-06-27T02:05:27.550Z,13.2
2017-06-27T02:06:26.807Z,13.2
2017-06-27T02:07:26.016Z,13.2
2017-06-27T02:08:25.213Z,13.2
2017-06-27T02:09:24.866Z,13.2
2017-06-27T02:09:54.877Z,13.2
2017-06-27T02:10:25.146Z,13.2
2017-06-27T02:11:23.396Z,13.2
2017-06-27T02:12:22.095Z,13.2
2017-06-27T02:13:21.297Z,13.2
2017-06-27T02:15:20.023Z,13.1
2017-06-27T02:16:19.097Z,13.1
2017-06-27T02:17:18.298Z,13.1
2017-06-27T02:18:17.487Z,13.1
2017-06-27T02:19:16.694Z,13.1
2017-06-27T02:20:16.280Z,13.1
2017-06-27T02:21:15.736Z,13
2017-06-27T02:22:14.433Z,13
2017-06-27T02:23:13.645Z,13
2017-06-27T02:24:12.849Z,13
2017-06-27T02:25:12.046Z,13
2017-06-27T02:26:11.243Z,13
2017-06-27T02:27:10.696Z,13
2017-06-27T02:28:09.897Z,12.9
2017-06-27T02:28:40.409Z,12.9
2017-06-27T02:30:08.332Z,12.9
2017-06-27T02:31:08.105Z,12.9
2017-06-27T02:32:06.805Z,12.9
2017-06-27T02:33:06.265Z,12.9
2017-06-27T02:34:05.348Z,12.9
2017-06-27T02:35:04.428Z,12.9
2017-06-27T02:36:03.621Z,12.9
2017-06-27T02:37:03.206Z,12.9
2017-06-27T02:38:02.179Z,12.9
2017-06-27T02:39:01.634Z,12.8
2017-06-27T02:40:00.827Z,12.9
2017-06-27T02:41:00.034Z,12.9
2017-06-27T02:41:59.238Z,12.9
2017-06-27T02:43:57.828Z,12.8
2017-06-27T02:44:57.182Z,12.8
2017-06-27T02:45:56.471Z,12.8
2017-06-27T02:46:55.456Z,12.8
2017-06-27T02:47:54.445Z,12.8
2017-06-27T02:48:53.661Z,12.8
2017-06-27T02:49:53.271Z,12.8
2017-06-27T02:50:52.732Z,12.8
2017-06-27T02:51:51.436Z,12.8
2017-06-27T02:52:50.652Z,12.8
2017-06-27T02:53:49.766Z,12.8
2017-06-27T02:54:49.359Z,12.8
2017-06-27T02:55:48.596Z,12.8
2017-06-27T02:56:48.072Z,12.8
2017-06-27T02:57:46.785Z,12.7
2017-06-27T02:58:45.883Z,12.7
2017-06-27T02:59:45.690Z,12.7
2017-06-27T03:00:44.418Z,12.7
2017-06-27T03:01:43.519Z,12.7
2017-06-27T03:02:43.482Z,12.7
2017-06-27T03:04:41.611Z,12.7
2017-06-27T03:05:40.831Z,12.6
2017-06-27T03:06:40.611Z,12.7
2017-06-27T03:07:39.200Z,12.6
2017-06-27T03:08:38.649Z,12.6
2017-06-27T03:09:37.737Z,12.6
2017-06-27T03:10:36.961Z,12.6
2017-06-27T03:11:36.165Z,12.6
2017-06-27T03:12:35.374Z,12.6
2017-06-27T03:13:34.585Z,12.6
2017-06-27T03:15:32.980Z,12.6
2017-06-27T03:16:32.268Z,12.6
2017-06-27T03:17:31.233Z,12.7
2017-06-27T03:18:30.442Z,12.7
2017-06-27T03:19:29.660Z,12.6
2017-06-27T03:20:28.878Z,12.7
2017-06-27T03:21:28.352Z,12.7
2017-06-27T03:22:27.568Z,12.7
2017-06-27T03:23:26.790Z,12.7
2017-06-27T03:24:26.007Z,12.7
2017-06-27T03:25:25.099Z,12.7
2017-06-27T03:26:24.305Z,12.7
2017-06-27T03:27:23.765Z,12.7
2017-06-27T03:28:22.972Z,12.7
2017-06-27T03:29:22.180Z,12.7
2017-06-27T03:30:21.280Z,12.7
2017-06-27T03:31:20.371Z,12.7
2017-06-27T03:32:19.566Z,12.8
2017-06-27T03:33:19.025Z,12.8
2017-06-27T03:34:18.234Z,12.8
2017-06-27T03:34:48.761Z,12.8
2017-06-27T03:35:19.278Z,12.8
2017-06-27T03:35:49.814Z,12.8
2017-06-27T03:37:15.584Z,12.8
2017-06-27T03:38:15.298Z,12.8
2017-06-27T03:39:14.759Z,12.8
2017-06-27T03:40:13.343Z,12.8
2017-06-27T03:41:12.548Z,12.8
2017-06-27T03:42:11.760Z,12.8
2017-06-27T03:43:10.969Z,12.9
2017-06-27T03:44:10.187Z,12.9
2017-06-27T03:45:09.733Z,12.9
2017-06-27T03:46:08.953Z,12.9
2017-06-27T03:47:08.176Z,12.9
2017-06-27T03:48:07.307Z,12.9
2017-06-27T03:49:06.520Z,12.9
2017-06-27T03:50:05.740Z,12.9
2017-06-27T03:51:05.203Z,12.9
2017-06-27T03:52:05.000Z,13
2017-06-27T03:53:03.223Z,13
2017-06-27T03:54:02.827Z,13
2017-06-27T03:55:01.907Z,13
2017-06-27T03:56:01.305Z,13.1
2017-06-27T03:57:59.652Z,13.1
2017-06-27T03:58:59.323Z,13.1
2017-06-27T03:59:58.033Z,13.1
2017-06-27T04:00:57.126Z,13.1
2017-06-27T04:01:56.344Z,13.1
2017-06-27T04:02:55.556Z,13.1
2017-06-27T04:03:54.656Z,13.1
2017-06-27T04:04:54.255Z,13.2
2017-06-27T04:05:53.462Z,13.2
2017-06-27T04:06:52.678Z,13.2
2017-06-27T04:07:51.829Z,13.2
2017-06-27T04:08:50.800Z,13.2
2017-06-27T04:09:50.659Z,13.2
2017-06-27T04:10:49.937Z,13.2
2017-06-27T04:11:48.638Z,13.3
2017-06-27T04:12:47.856Z,13.2
2017-06-27T04:14:46.461Z,13.3
2017-06-27T04:15:45.923Z,13.3
2017-06-27T04:16:44.652Z,13.3
2017-06-27T04:17:43.633Z,13.4
2017-06-27T04:18:43.131Z,13.4
2017-06-27T04:20:41.754Z,13.4
2017-06-27T04:21:40.967Z,13.4
2017-06-27T04:22:40.065Z,13.4
2017-06-27T04:23:39.546Z,13.4
2017-06-27T04:24:38.519Z,13.5
2017-06-27T04:25:38.004Z,13.5
2017-06-27T04:26:37.207Z,13.5
2017-06-27T04:27:37.095Z,13.5
2017-06-27T04:28:35.804Z,13.5
2017-06-27T04:29:34.916Z,13.5
2017-06-27T04:30:34.141Z,13.5
2017-06-27T04:31:33.352Z,13.5
2017-06-27T04:32:32.549Z,13.5
2017-06-27T04:33:32.023Z,13.6
2017-06-27T04:34:30.742Z,13.6
2017-06-27T04:35:29.952Z,13.6
2017-06-27T04:36:29.663Z,13.6
2017-06-27T04:37:28.750Z,13.6
2017-06-27T04:38:27.841Z,13.6
2017-06-27T04:39:27.190Z,13.6
2017-06-27T04:40:26.413Z,13.6
2017-06-27T04:41:25.390Z,13.7
2017-06-27T04:42:24.490Z,13.6
2017-06-27T04:43:24.200Z,13.7
2017-06-27T04:44:23.412Z,13.6
2017-06-27T04:46:21.763Z,13.6
2017-06-27T04:47:20.978Z,13.6
2017-06-27T04:48:20.068Z,13.6
2017-06-27T04:49:19.291Z,13.6
2017-06-27T04:50:18.577Z,13.6
2017-06-27T04:51:17.786Z,13.6
2017-06-27T04:52:17.886Z,13.6
2017-06-27T04:53:16.585Z,13.6
2017-06-27T04:54:15.840Z,13.6
2017-06-27T04:55:15.061Z,13.6
2017-06-27T04:56:14.277Z,13.6
2017-06-27T04:57:13.487Z,13.6
2017-06-27T04:58:12.834Z,13.7
2017-06-27T04:59:12.138Z,13.7
2017-06-27T05:00:11.041Z,13.7
2017-06-27T05:01:10.251Z,13.7
2017-06-27T05:02:09.458Z,13.8
2017-06-27T05:03:08.669Z,13.8
2017-06-27T05:04:08.016Z,13.8
2017-06-27T05:05:07.234Z,13.9
2017-06-27T05:06:06.207Z,13.9
2017-06-27T05:07:05.917Z,13.9
2017-06-27T05:08:04.697Z,13.9
2017-06-27T05:09:03.795Z,13.9
2017-06-27T05:10:03.407Z,14
2017-06-27T05:11:02.499Z,14
2017-06-27T05:12:01.710Z,14.1
2017-06-27T05:14:01.010Z,14.1
2017-06-27T05:14:59.600Z,14.2
2017-06-27T05:15:59.067Z,14.2
2017-06-27T05:16:58.755Z,14.2
2017-06-27T05:17:57.468Z,14.2
2017-06-27T05:18:56.619Z,14.2
2017-06-27T05:19:55.720Z,14.2
2017-06-27T05:20:54.816Z,14.3
2017-06-27T05:21:54.285Z,14.3
2017-06-27T05:22:53.507Z,14.3
2017-06-27T05:24:52.119Z,14.3
2017-06-27T05:25:51.222Z,14.3
2017-06-27T05:26:50.429Z,14.3
2017-06-27T05:27:49.956Z,14.4
2017-06-27T05:28:49.048Z,14.4
2017-06-27T05:29:48.258Z,14.4
2017-06-27T05:30:47.352Z,14.4
2017-06-27T05:31:46.450Z,14.4
2017-06-27T05:32:46.159Z,14.4
2017-06-27T05:33:45.627Z,14.4
2017-06-27T05:34:44.381Z,14.4
2017-06-27T05:35:43.593Z,14.5
2017-06-27T05:36:42.703Z,14.5
2017-06-27T05:37:41.675Z,14.5
2017-06-27T05:38:41.614Z,14.5
2017-06-27T05:39:41.073Z,14.5
2017-06-27T05:40:39.770Z,14.6
2017-06-27T05:41:38.984Z,14.6
2017-06-27T05:42:38.360Z,14.6
2017-06-27T05:43:37.575Z,14.7
2017-06-27T05:44:36.801Z,14.7
2017-06-27T05:45:36.270Z,14.7
2017-06-27T05:46:35.479Z,14.7
2017-06-27T05:47:34.685Z,14.7
2017-06-27T05:48:33.898Z,14.8
2017-06-27T05:49:33.000Z,14.8
2017-06-27T05:50:32.214Z,14.8
2017-06-27T05:51:31.682Z,14.8
2017-06-27T05:52:30.899Z,14.9
2017-06-27T05:53:30.099Z,14.9
2017-06-27T05:54:29.302Z,14.9
2017-06-27T05:55:28.521Z,14.9
2017-06-27T05:56:27.741Z,15
2017-06-27T05:57:27.203Z,15
2017-06-27T05:58:26.424Z,15.1
2017-06-27T05:59:25.636Z,15.1
2017-06-27T06:00:24.867Z,15.2
2017-06-27T06:01:24.075Z,15.2
2017-06-27T06:02:23.280Z,15.2
2017-06-27T06:03:22.613Z,15.3
2017-06-27T06:04:21.824Z,15.3
2017-06-27T06:05:21.041Z,15.3
2017-06-27T06:06:20.251Z,15.4
2017-06-27T06:07:19.520Z,15.4
2017-06-27T06:08:18.817Z,15.4
2017-06-27T06:09:18.550Z,15.4
2017-06-27T06:10:17.264Z,15.5
2017-06-27T06:11:16.350Z,15.5
2017-06-27T06:12:15.945Z,15.5
2017-06-27T06:13:14.797Z,15.5
2017-06-27T06:14:14.392Z,15.6
2017-06-27T06:15:13.927Z,15.6
2017-06-27T06:17:12.419Z,15.7
2017-06-27T06:18:11.626Z,15.7
2017-06-27T06:19:10.755Z,15.8
2017-06-27T06:20:09.848Z,15.8
2017-06-27T06:21:09.709Z,15.8
2017-06-27T06:22:08.302Z,15.8
2017-06-27T06:23:07.890Z,15.9
2017-06-27T06:24:07.105Z,15.9
2017-06-27T06:25:05.967Z,15.9
2017-06-27T06:26:05.692Z,15.9
2017-06-27T06:27:05.036Z,16
2017-06-27T06:28:03.938Z,16
2017-06-27T06:29:03.535Z,16
2017-06-27T06:30:02.632Z,16
2017-06-27T06:31:02.112Z,16
2017-06-27T06:32:01.240Z,16
2017-06-27T06:33:00.776Z,16.1
2017-06-27T06:33:30.818Z,16.1
2017-06-27T06:34:59.096Z,16.1
2017-06-27T06:35:58.060Z,16.1
2017-06-27T06:36:57.279Z,16.1
2017-06-27T06:37:57.000Z,16.2
2017-06-27T06:38:57.019Z,16.2
2017-06-27T06:39:55.233Z,16.2
2017-06-27T06:40:54.512Z,16.3
2017-06-27T06:41:53.726Z,16.3
2017-06-27T06:42:52.824Z,16.4
2017-06-27T06:43:52.424Z,16.4
2017-06-27T06:44:23.198Z,16.4
2017-06-27T06:45:50.974Z,16.4
2017-06-27T06:46:50.070Z,16.4
2017-06-27T06:47:49.786Z,16.4
2017-06-27T06:48:48.883Z,16.5
2017-06-27T06:49:47.982Z,16.5
2017-06-27T06:50:47.453Z,16.5
2017-06-27T06:51:46.809Z,16.5
2017-06-27T06:52:45.784Z,16.5
2017-06-27T06:53:45.000Z,16.5
2017-06-27T06:54:45.301Z,16.5
2017-06-27T06:55:43.930Z,16.5
2017-06-27T06:56:43.172Z,16.5
2017-06-27T06:57:42.268Z,16.5
2017-06-27T06:58:41.859Z,16.5
2017-06-27T06:59:41.078Z,16.6
2017-06-27T07:00:40.125Z,16.6
2017-06-27T07:01:40.229Z,16.6
2017-06-27T07:02:38.944Z,16.6
2017-06-27T07:03:38.039Z,16.5
2017-06-27T07:04:37.243Z,16.6
2017-06-27T07:05:37.040Z,16.6
2017-06-27T07:06:35.630Z,16.6
2017-06-27T07:07:35.481Z,16.7
2017-06-27T07:08:35.132Z,16.7
2017-06-27T07:09:33.779Z,16.8
2017-06-27T07:10:32.989Z,16.8
2017-06-27T07:11:32.764Z,16.9
2017-06-27T07:12:31.467Z,16.9
2017-06-27T07:13:31.321Z,16.9
2017-06-27T07:14:30.026Z,17
2017-06-27T07:15:29.232Z,17
2017-06-27T07:16:28.957Z,17
2017-06-27T07:17:28.163Z,17.1
2017-06-27T07:18:27.265Z,17.1
2017-06-27T07:19:27.119Z,17.2
2017-06-27T07:20:25.739Z,17.2
2017-06-27T07:21:25.452Z,17.2
2017-06-27T07:22:24.585Z,17.2
2017-06-27T07:23:23.799Z,17.2
2017-06-27T07:24:22.913Z,17.3
2017-06-27T07:25:22.713Z,17.3
2017-06-27T07:27:20.569Z,17.4
2017-06-27T07:28:20.056Z,17.4
2017-06-27T07:29:19.657Z,17.4
2017-06-27T07:30:18.876Z,17.4
2017-06-27T07:31:18.216Z,17.5
2017-06-27T07:33:16.715Z,17.5
2017-06-27T07:34:15.924Z,17.5
2017-06-27T07:35:15.645Z,17.5
2017-06-27T07:37:14.079Z,17.6
2017-06-27T07:38:13.171Z,17.6
2017-06-27T07:39:12.400Z,17.6
2017-06-27T07:40:11.666Z,17.7
2017-06-27T07:41:11.258Z,17.7
2017-06-27T07:42:10.339Z,17.7
2017-06-27T07:43:10.627Z,17.7
2017-06-27T07:44:09.218Z,17.8
2017-06-27T07:45:08.519Z,17.8
2017-06-27T07:46:08.315Z,17.8
2017-06-27T07:47:07.026Z,17.9
2017-06-27T07:48:06.234Z,17.9
2017-06-27T07:49:05.704Z,17.9
2017-06-27T07:50:04.805Z,17.9
2017-06-27T07:51:04.525Z,18
2017-06-27T07:52:03.622Z,18
2017-06-27T07:53:02.725Z,18
2017-06-27T07:53:33.243Z,18
2017-06-27T07:55:01.892Z,18
2017-06-27T07:56:00.997Z,18.1
2017-06-27T07:57:00.213Z,18.1
2017-06-27T07:57:59.425Z,18.1
2017-06-27T07:58:58.521Z,18.2
2017-06-27T07:59:58.114Z,18.2
2017-06-27T08:00:57.585Z,18.2
2017-06-27T08:01:57.350Z,18.3
2017-06-27T08:02:56.067Z,18.3
2017-06-27T08:03:55.342Z,18.3
2017-06-27T08:04:55.107Z,18.3
2017-06-27T08:05:54.099Z,18.3
2017-06-27T08:06:53.564Z,18.3
2017-06-27T08:07:52.661Z,18.4
2017-06-27T08:08:51.741Z,18.3
2017-06-27T08:09:51.453Z,18.4
2017-06-27T08:10:50.549Z,18.3
2017-06-27T08:11:49.828Z,18.3
2017-06-27T08:12:49.299Z,18.3
2017-06-27T08:13:48.507Z,18.3
2017-06-27T08:14:47.709Z,18.4
2017-06-27T08:15:47.425Z,18.4
2017-06-27T08:16:46.635Z,18.4
2017-06-27T08:17:45.856Z,18.5
2017-06-27T08:18:45.323Z,18.5
2017-06-27T08:19:44.411Z,18.5
2017-06-27T08:20:43.627Z,18.5
2017-06-27T08:21:43.248Z,18.5
2017-06-27T08:22:42.421Z,18.5
2017-06-27T08:23:41.647Z,18.5
2017-06-27T08:24:41.492Z,18.5
2017-06-27T08:25:40.579Z,18.5
2017-06-27T08:26:39.798Z,18.4
2017-06-27T08:27:39.021Z,18.5
2017-06-27T08:28:38.237Z,18.5
2017-06-27T08:29:37.836Z,18.5
2017-06-27T08:30:37.230Z,18.5
2017-06-27T08:31:36.450Z,18.4
2017-06-27T08:32:35.414Z,18.4
2017-06-27T08:33:34.889Z,18.4
2017-06-27T08:34:34.637Z,18.5
2017-06-27T08:35:33.723Z,18.5
2017-06-27T08:36:33.455Z,18.4
2017-06-27T08:37:32.103Z,18.4
2017-06-27T08:38:31.702Z,18.4
2017-06-27T08:39:30.916Z,18.4
2017-06-27T08:40:30.636Z,18.5
2017-06-27T08:41:30.405Z,18.4
2017-06-27T08:42:29.435Z,18.5
2017-06-27T08:43:28.654Z,18.4
2017-06-27T08:44:27.775Z,18.4
2017-06-27T08:45:27.082Z,18.4
2017-06-27T08:46:26.877Z,18.5
2017-06-27T08:46:56.890Z,18.5
2017-06-27T08:47:27.427Z,18.5
2017-06-27T08:48:25.126Z,18.5
2017-06-27T08:49:24.335Z,18.5
2017-06-27T08:50:23.556Z,18.4
2017-06-27T08:51:23.265Z,18.4
2017-06-27T08:52:22.479Z,18.3
2017-06-27T08:53:21.949Z,18.4
2017-06-27T08:54:21.171Z,18.4
2017-06-27T08:55:20.316Z,18.4
2017-06-27T08:56:19.526Z,18.4
2017-06-27T08:57:19.299Z,18.4
2017-06-27T08:58:18.581Z,18.4
2017-06-27T08:59:17.803Z,18.4
2017-06-27T09:00:17.336Z,18.4
2017-06-27T09:01:16.432Z,18.4
2017-06-27T09:02:15.636Z,18.4
2017-06-27T09:03:15.346Z,18.4
2017-06-27T09:04:14.562Z,18.5
2017-06-27T09:05:13.911Z,18.5
2017-06-27T09:06:13.011Z,18.4
2017-06-27T09:07:12.492Z,18.4
2017-06-27T09:08:11.630Z,18.4
2017-06-27T09:09:12.007Z,18.4
2017-06-27T09:10:10.601Z,18.5
2017-06-27T09:12:09.459Z,18.5
2017-06-27T09:14:07.442Z,18.6
2017-06-27T09:15:07.720Z,18.5
2017-06-27T09:16:06.441Z,18.5
2017-06-27T09:17:06.035Z,18.5
2017-06-27T09:18:05.491Z,18.6
2017-06-27T09:19:04.601Z,18.6
2017-06-27T09:20:03.767Z,18.6
2017-06-27T09:21:02.968Z,18.5
2017-06-27T09:22:02.697Z,18.5
2017-06-27T09:23:01.808Z,18.5
2017-06-27T09:24:01.278Z,18.5
2017-06-27T09:25:00.487Z,18.5
2017-06-27T09:25:59.591Z,18.5
2017-06-27T09:26:59.307Z,18.5
2017-06-27T09:27:58.420Z,18.5
2017-06-27T09:28:57.630Z,18.6
2017-06-27T09:29:57.600Z,18.5
2017-06-27T09:30:56.712Z,18.5
2017-06-27T09:31:55.930Z,18.6
2017-06-27T09:32:55.141Z,18.6
2017-06-27T09:33:54.352Z,18.5
2017-06-27T09:34:53.937Z,18.6
2017-06-27T09:35:53.403Z,18.5
2017-06-27T09:36:52.679Z,18.6
2017-06-27T09:37:51.663Z,18.6
2017-06-27T09:38:51.144Z,18.6
2017-06-27T09:39:50.622Z,18.6
2017-06-27T09:40:49.717Z,18.6
2017-06-27T09:41:49.685Z,18.6
2017-06-27T09:42:48.549Z,18.6
2017-06-27T09:43:47.748Z,18.5
2017-06-27T09:44:47.471Z,18.5
2017-06-27T09:45:46.683Z,18.5
2017-06-27T09:46:46.156Z,18.6
2017-06-27T09:47:45.619Z,18.6
2017-06-27T09:48:44.731Z,18.6
2017-06-27T09:49:43.947Z,18.7
2017-06-27T09:50:43.432Z,18.6
2017-06-27T09:51:42.549Z,18.6
2017-06-27T09:52:41.650Z,18.7
2017-06-27T09:53:41.616Z,18.7
2017-06-27T09:54:40.825Z,18.7
2017-06-27T09:55:40.031Z,18.7
2017-06-27T09:56:39.694Z,18.7
2017-06-27T09:57:38.784Z,18.7
2017-06-27T09:58:37.883Z,18.6
2017-06-27T09:59:37.845Z,18.7
2017-06-27T10:00:36.561Z,18.7
2017-06-27T10:01:36.287Z,18.7
2017-06-27T10:02:35.498Z,18.7
2017-06-27T10:03:34.584Z,18.7
2017-06-27T10:04:34.282Z,18.7
2017-06-27T10:05:33.510Z,18.7
2017-06-27T10:06:32.664Z,18.7
2017-06-27T10:07:31.865Z,18.7
2017-06-27T10:08:31.339Z,18.7
2017-06-27T10:09:30.956Z,18.7
2017-06-27T10:10:30.041Z,18.7
2017-06-27T10:11:29.505Z,18.7
2017-06-27T10:12:28.603Z,18.8
2017-06-27T10:13:28.323Z,18.8
2017-06-27T10:14:27.603Z,18.8
2017-06-27T10:14:58.113Z,18.8
2017-06-27T10:15:28.633Z,18.8
2017-06-27T10:15:59.160Z,18.8
2017-06-27T10:17:25.855Z,18.8
2017-06-27T10:18:24.824Z,18.8
2017-06-27T10:19:24.039Z,18.8
2017-06-27T10:20:23.751Z,18.8
2017-06-27T10:21:22.954Z,18.8
2017-06-27T10:22:22.182Z,18.8
2017-06-27T10:23:21.653Z,18.9
2017-06-27T10:24:20.878Z,18.9
2017-06-27T10:25:20.087Z,18.9
2017-06-27T10:26:19.809Z,18.9
2017-06-27T10:27:19.029Z,18.9
2017-06-27T10:28:18.242Z,19
2017-06-27T10:29:17.716Z,19
2017-06-27T10:31:16.325Z,19.1
2017-06-27T10:32:15.539Z,19.1
2017-06-27T10:33:15.014Z,19.1
2017-06-27T10:34:14.621Z,19.2
2017-06-27T10:35:14.091Z,19.1
2017-06-27T10:36:13.300Z,19.2
2017-06-27T10:37:12.528Z,19.2
2017-06-27T10:38:11.637Z,19.3
2017-06-27T10:39:11.352Z,19.3
2017-06-27T10:40:10.573Z,19.3
2017-06-27T10:41:10.070Z,19.4
2017-06-27T10:42:09.283Z,19.4
2017-06-27T10:43:08.482Z,19.4
2017-06-27T10:44:07.695Z,19.5
2017-06-27T10:45:07.415Z,19.5
2017-06-27T10:46:06.513Z,19.6
2017-06-27T10:47:06.359Z,19.6
2017-06-27T10:48:05.457Z,19.6
2017-06-27T10:50:04.131Z,19.7
2017-06-27T10:51:03.219Z,19.6
2017-06-27T10:52:02.932Z,19.7
2017-06-27T10:53:02.334Z,19.8
2017-06-27T10:54:01.309Z,19.8
2017-06-27T10:55:01.021Z,19.8
2017-06-27T10:55:31.536Z,19.8
2017-06-27T10:56:01.816Z,19.9
2017-06-27T10:56:32.220Z,19.9
2017-06-27T10:57:59.124Z,19.9
2017-06-27T10:58:58.593Z,19.9
2017-06-27T10:59:57.806Z,20
2017-06-27T11:00:57.064Z,20
2017-06-27T11:01:56.271Z,20
2017-06-27T11:02:55.378Z,20.1
2017-06-27T11:03:55.085Z,20.1
2017-06-27T11:04:54.556Z,20.1
2017-06-27T11:05:53.758Z,20.2
2017-06-27T11:06:52.855Z,20.2
2017-06-27T11:07:52.574Z,20.2
2017-06-27T11:08:51.672Z,20.3
2017-06-27T11:09:51.281Z,20.3
2017-06-27T11:10:50.796Z,20.2
2017-06-27T11:11:49.996Z,20.3
2017-06-27T11:12:49.217Z,20.2
2017-06-27T11:13:48.937Z,20.3
2017-06-27T11:14:48.062Z,20.3
2017-06-27T11:15:47.427Z,20.3
2017-06-27T11:17:46.295Z,20.4
2017-06-27T11:18:45.282Z,20.4
2017-06-27T11:19:45.207Z,20.4
2017-06-27T11:20:44.261Z,20.4
2017-06-27T11:21:43.980Z,20.4
2017-06-27T11:22:43.084Z,20.5
2017-06-27T11:23:42.555Z,20.5
2017-06-27T11:24:41.650Z,20.5
2017-06-27T11:25:41.365Z,20.5
2017-06-27T11:26:40.582Z,20.5
2017-06-27T11:27:10.992Z,20.5
2017-06-27T11:27:41.520Z,20.5
2017-06-27T11:28:39.228Z,20.5
2017-06-27T11:30:38.596Z,20.5
2017-06-27T11:31:37.694Z,20.6
2017-06-27T11:32:36.827Z,20.6
2017-06-27T11:33:36.428Z,20.6
2017-06-27T11:34:35.519Z,20.6
2017-06-27T11:35:35.108Z,20.6
2017-06-27T11:36:34.592Z,20.7
2017-06-27T11:37:33.561Z,20.8
2017-06-27T11:39:32.669Z,21
2017-06-27T11:40:31.767Z,21.1
2017-06-27T11:41:31.472Z,21.3
2017-06-27T11:42:30.809Z,21.4
2017-06-27T11:43:29.799Z,21.5
2017-06-27T11:44:29.520Z,21.6
2017-06-27T11:45:28.727Z,21.6
2017-06-27T11:46:27.939Z,21.6
2017-06-27T11:47:27.579Z,21.5
2017-06-27T11:48:27.066Z,21.6
2017-06-27T11:49:26.159Z,21.7
2017-06-27T11:50:25.873Z,21.5
2017-06-27T11:51:24.972Z,21.4
2017-06-27T11:52:24.447Z,21.3
2017-06-27T11:52:55.245Z,21.3
2017-06-27T11:54:23.397Z,21.3
2017-06-27T11:55:22.620Z,21.3
2017-06-27T11:56:22.341Z,21.3
2017-06-27T11:57:21.439Z,21.3
2017-06-27T11:58:21.147Z,21.3
2017-06-27T11:59:20.278Z,21.2
2017-06-27T12:00:19.861Z,21
2017-06-27T12:01:19.102Z,21.1
2017-06-27T12:02:18.709Z,21
2017-06-27T12:03:17.942Z,21.1
2017-06-27T12:04:17.529Z,21.2
2017-06-27T12:05:16.498Z,21.2
2017-06-27T12:06:16.353Z,21.1
2017-06-27T12:07:15.568Z,21.2
2017-06-27T12:08:14.537Z,21.2
2017-06-27T12:09:14.121Z,21.1
2017-06-27T12:10:13.847Z,21.1
2017-06-27T12:11:13.066Z,21.1
2017-06-27T12:12:12.539Z,21.1
2017-06-27T12:13:11.751Z,21.2
2017-06-27T12:14:11.479Z,21.2
2017-06-27T12:15:10.694Z,21.3
2017-06-27T12:16:09.911Z,21.3
2017-06-27T12:17:09.509Z,21.3
2017-06-27T12:18:08.907Z,21.3
2017-06-27T12:19:08.120Z,21.3
2017-06-27T12:20:07.721Z,21.2
2017-06-27T12:21:06.927Z,21.3
2017-06-27T12:22:06.643Z,21.2
2017-06-27T12:23:05.862Z,21.3
2017-06-27T12:24:05.945Z,21.3
2017-06-27T12:25:04.685Z,21.2
2017-06-27T12:26:03.793Z,21.2
2017-06-27T12:27:03.385Z,21.2
2017-06-27T12:28:03.108Z,21.2
2017-06-27T12:29:02.321Z,21.2
2017-06-27T12:30:01.784Z,21.2
2017-06-27T12:31:01.039Z,21.1
2017-06-27T12:32:00.639Z,21.2
2017-06-27T12:32:59.849Z,21.3
2017-06-27T12:33:59.565Z,21.4
2017-06-27T12:34:58.776Z,21.5
2017-06-27T12:35:58.235Z,21.5
2017-06-27T12:36:57.449Z,21.6
2017-06-27T12:37:57.047Z,21.7
2017-06-27T12:38:56.140Z,21.8
2017-06-27T12:39:55.933Z,21.9
2017-06-27T12:40:55.160Z,21.9
2017-06-27T12:41:55.005Z,22
2017-06-27T12:42:54.098Z,22
2017-06-27T12:43:53.317Z,22.1
2017-06-27T12:44:53.042Z,22.1
2017-06-27T12:45:52.250Z,22.1
2017-06-27T12:46:51.469Z,22.2
2017-06-27T12:48:50.784Z,22.2
2017-06-27T12:49:49.870Z,22.1
2017-06-27T12:50:49.087Z,22.1
2017-06-27T12:51:48.803Z,22.1
2017-06-27T12:52:48.020Z,22.1
2017-06-27T12:53:47.311Z,22.1
2017-06-27T12:54:47.421Z,22.1
2017-06-27T12:55:46.379Z,21.9
2017-06-27T12:56:45.588Z,22
2017-06-27T12:57:45.304Z,22
2017-06-27T12:58:44.513Z,22
2017-06-27T13:00:43.878Z,21.9
2017-06-27T13:01:43.110Z,21.9
2017-06-27T13:02:42.327Z,21.8
2017-06-27T13:03:41.527Z,21.7
2017-06-27T13:04:41.251Z,21.7
2017-06-27T13:05:11.772Z,21.7
2017-06-27T13:05:42.296Z,21.7
2017-06-27T13:06:39.887Z,21.6
2017-06-27T13:07:39.599Z,21.6
2017-06-27T13:08:38.809Z,21.6
2017-06-27T13:09:38.024Z,21.6
2017-06-27T13:10:37.751Z,21.7
2017-06-27T13:11:37.090Z,21.7
2017-06-27T13:12:36.317Z,21.6
2017-06-27T13:13:35.920Z,21.6
2017-06-27T13:14:35.122Z,21.6
2017-06-27T13:15:34.837Z,21.7
2017-06-27T13:16:34.136Z,21.7
2017-06-27T13:17:04.905Z,21.7
2017-06-27T13:17:34.866Z,21.7
2017-06-27T13:18:05.378Z,21.7
2017-06-27T13:19:32.148Z,21.8
2017-06-27T13:20:31.862Z,21.7
2017-06-27T13:21:31.075Z,21.6
2017-06-27T13:22:31.051Z,21.7
2017-06-27T13:23:30.155Z,21.7
2017-06-27T13:24:29.936Z,21.7
2017-06-27T13:25:29.151Z,21.8
2017-06-27T13:26:28.377Z,21.7
2017-06-27T13:27:27.482Z,21.8
2017-06-27T13:28:27.328Z,21.8
2017-06-27T13:29:26.429Z,21.9
2017-06-27T13:31:25.536Z,21.8